Time,TemperatureF,DewpointF,PressureIn,WindDirection,WindDirectionDegrees,WindSpeedMPH,WindSpeedGustMPH,Humidity,HourlyPrecipIn,Conditions,Clouds,dailyrainin,SoftwareType,DateUTC
2013-11-01 00:03:00,49.1,46.3,29.46,SSW,208,11.5,11.5,90,0.01,RA,,0.00,WeatherDisplay:10.37,2013-11-01 05:03:00,
2013-11-01 00:08:00,49.0,46.2,29.46,NE,41,17.3,17.3,90,0.01,RA,,0.00,WeatherDisplay:10.37,2013-11-01 05:08:00,
2013-11-01 00:13:00,48.9,46.1,29.47,NW,315,19.6,19.6,90,0.01,CLR,,0.00,WeatherDisplay:10.37,2013-11-01 05:13:00,
2013-11-01 00:18:00,48.9,46.1,29.47,WNW,294,15.0,15.0,90,0.01,CLR,,0.00,WeatherDisplay:10.37,2013-11-01 05:18:00,
2013-11-01 00:23:00,48.9,45.8,29.47,WNW,299,19.6,19.6,89,0.01,CLR,,0.00,WeatherDisplay:10.37,2013-11-01 05:23:00,
2013-11-01 00:28:00,48.8,45.7,29.48,WSW,241,11.5,11.5,89,0.01,CLR,,0.00,WeatherDisplay:10.37,2013-11-01 05:28:00,
2013-11-01 00:33:00,48.7,45.3,29.49,West,267,18.4,18.4,88,0.01,CLR,,0.00,WeatherDisplay:10.37,2013-11-01 05:33:00,
2013-11-01 00:38:00,48.3,44.6,29.49,SW,225,17.3,17.3,87,0.01,CLR,,0.00,WeatherDisplay:10.37,2013-11-01 05:38:00,
2013-11-01 00:43:00,48.1,44.4,29.49,WSW,250,17.3,17.3,87,0.00,CLR,,0.00,WeatherDisplay:10.37,2013-11-01 05:43:00,
2013-11-01 00:45:00,48.0,44.3,29.49,WSW,246,16.0,16.0,87,0.00,CLR,,0.00,WeatherDisplay:10.37,2013-11-01 05:45:00,
2013-11-01 00:50:00,47.8,44.1,29.50,West,281,14.0,14.0,87,0.00,CLR,,0.00,WeatherDisplay:10.37,2013-11-01 05:50:00,
2013-11-01 00:55:00,47.6,43.9,29.50,WNW,288,12.7,12.7,87,0.00,CLR,,0.00,WeatherDisplay:10.37,2013-11-01 05:55:00,
2013-11-01 01:00:00,47.5,43.8,29.50,SW,217,13.8,13.8,87,0.00,CLR,,0.00,WeatherDisplay:10.37,2013-11-01 06:00:00,
2013-11-01 01:05:00,47.4,43.7,29.50,WNW,293,12.7,12.7,87,0.00,CLR,,0.00,WeatherDisplay:10.37,2013-11-01 06:05:00,
2013-11-01 01:10:00,47.4,43.7,29.50,WNW,290,13.8,13.8,87,0.00,CLR,,0.00,WeatherDisplay:10.37,2013-11-01 06:10:00,
2013-11-01 01:15:00,47.4,44.0,29.50,West,266,11.5,11.5,88,0.00,CLR,,0.00,WeatherDisplay:10.37,2013-11-01 06:15:00,
2013-11-01 01:20:00,47.3,43.9,29.50,SW,235,19.6,19.6,88,0.00,CLR,,0.00,WeatherDisplay:10.37,2013-11-01 06:20:00,
2013-11-01 01:25:00,47.2,43.5,29.51,West,274,13.8,13.8,87,0.00,CLR,,0.00,WeatherDisplay:10.37,2013-11-01 06:25:00,
2013-11-01 01:30:00,47.1,43.4,29.51,SW,227,13.8,13.8,87,0.00,CLR,,0.00,WeatherDisplay:10.37,2013-11-01 06:30:00,
2013-11-01 01:35:00,47.0,43.3,29.50,SW,219,9.2,9.2,87,0.00,CLR,,0.00,WeatherDisplay:10.37,2013-11-01 06:35:00,
2013-11-01 01:40:00,46.9,43.5,29.50,SW,229,12.0,12.0,88,0.00,CLR,,0.00,WeatherDisplay:10.37,2013-11-01 06:40:00,
2013-11-01 01:45:00,46.7,43.3,29.51,SW,235,19.6,19.6,88,0.00,CLR,,0.00,WeatherDisplay:10.37,2013-11-01 06:45:00,
2013-11-01 01:50:00,46.6,43.2,29.50,SSW,198,12.7,12.7,88,0.00,CLR,,0.00,WeatherDisplay:10.37,2013-11-01 06:50:00,
2013-11-01 01:55:00,46.5,43.1,29.51,WSW,252,15.0,15.0,88,0.00,CLR,,0.00,WeatherDisplay:10.37,2013-11-01 06:55:00,
2013-11-01 02:00:00,46.4,43.0,29.51,WNW,282,14.0,14.0,88,0.00,CLR,,0.00,WeatherDisplay:10.37,2013-11-01 07:00:00,
2013-11-01 02:05:00,46.2,42.8,29.52,SW,225,17.3,17.3,88,0.00,CLR,,0.00,WeatherDisplay:10.37,2013-11-01 07:05:00,
2013-11-01 02:10:00,46.1,42.7,29.52,WSW,245,13.8,13.8,88,0.00,CLR,,0.00,WeatherDisplay:10.37,2013-11-01 07:10:00,
2013-11-01 02:15:00,46.0,42.6,29.52,SW,236,12.7,12.7,88,0.00,CLR,,0.00,WeatherDisplay:10.37,2013-11-01 07:15:00,
2013-11-01 02:20:00,45.9,42.8,29.53,SSW,205,13.8,13.8,89,0.00,CLR,,0.00,WeatherDisplay:10.37,2013-11-01 07:20:00,
2013-11-01 02:25:00,45.9,42.8,29.53,SSW,209,15.0,15.0,89,0.00,CLR,,0.00,WeatherDisplay:10.37,2013-11-01 07:25:00,
2013-11-01 02:30:00,45.8,42.7,29.53,SW,236,10.4,10.4,89,0.00,CLR,,0.00,WeatherDisplay:10.37,2013-11-01 07:30:00,
2013-11-01 02:35:00,45.7,42.6,29.53,West,259,12.7,12.7,89,0.00,CLR,,0.00,WeatherDisplay:10.37,2013-11-01 07:35:00,
2013-11-01 02:40:00,45.6,42.8,29.54,SW,216,12.7,12.7,90,0.00,CLR,,0.00,WeatherDisplay:10.37,2013-11-01 07:40:00,
2013-11-01 02:45:00,45.5,42.7,29.54,WSW,251,15.0,15.0,90,0.00,CLR,,0.00,WeatherDisplay:10.37,2013-11-01 07:45:00,
2013-11-01 02:50:00,45.4,42.6,29.53,SW,215,11.5,11.5,90,0.00,CLR,,0.00,WeatherDisplay:10.37,2013-11-01 07:50:00,
2013-11-01 02:55:00,45.3,42.5,29.53,SW,227,12.7,12.7,90,0.00,CLR,,0.00,WeatherDisplay:10.37,2013-11-01 07:55:00,
2013-11-01 03:00:00,45.2,42.7,29.53,SW,229,10.4,10.4,91,0.00,CLR,,0.00,WeatherDisplay:10.37,2013-11-01 08:00:00,
2013-11-01 03:05:00,45.1,42.6,29.52,SW,223,12.7,12.7,91,0.00,CLR,,0.00,WeatherDisplay:10.37,2013-11-01 08:05:00,
2013-11-01 03:10:00,45.0,42.5,29.52,SW,228,9.2,9.2,91,0.00,CLR,,0.00,WeatherDisplay:10.37,2013-11-01 08:10:00,
2013-11-01 03:15:00,45.0,42.5,29.53,SW,226,15.0,15.0,91,0.00,CLR,,0.00,WeatherDisplay:10.37,2013-11-01 08:15:00,
2013-11-01 03:20:00,44.9,42.4,29.52,SW,216,9.2,9.2,91,0.00,CLR,,0.00,WeatherDisplay:10.37,2013-11-01 08:20:00,
2013-11-01 03:25:00,44.8,42.3,29.52,SW,229,12.7,12.7,91,0.00,CLR,,0.00,WeatherDisplay:10.37,2013-11-01 08:25:00,
2013-11-01 03:30:00,44.9,42.7,29.53,SSW,209,10.4,10.4,92,0.00,CLR,,0.00,WeatherDisplay:10.37,2013-11-01 08:30:00,
2013-11-01 03:35:00,44.9,42.7,29.53,South,190,10.4,10.4,92,0.00,CLR,,0.00,WeatherDisplay:10.37,2013-11-01 08:35:00,
2013-11-01 03:40:00,44.9,42.7,29.53,SSW,202,15.0,15.0,92,0.00,CLR,,0.00,WeatherDisplay:10.37,2013-11-01 08:40:00,
2013-11-01 03:45:00,44.9,42.7,29.53,SW,217,16.1,16.1,92,0.00,CLR,,0.00,WeatherDisplay:10.37,2013-11-01 08:45:00,
2013-11-01 03:50:00,45.0,42.8,29.53,SW,221,7.0,22.0,92,0.00,CLR,,0.00,WeatherDisplay:10.37,2013-11-01 08:50:00,
2013-11-01 03:55:00,45.0,42.9,29.52,SW,228,12.0,20.0,92,0.00,CLR,,0.00,WeatherDisplay:10.37,2013-11-01 08:55:00,
2013-11-01 04:00:00,45.1,42.9,29.52,SW,226,10.0,16.0,92,0.00,CLR,,0.00,WeatherDisplay:10.37,2013-11-01 09:00:00,
2013-11-01 04:05:00,45.1,42.9,29.52,SW,226,12.0,20.0,92,0.00,CLR,,0.00,WeatherDisplay:10.37,2013-11-01 09:05:00,
2013-11-01 04:10:00,45.2,43.0,29.53,SSW,211,18.0,18.0,92,0.00,CLR,,0.00,WeatherDisplay:10.37,2013-11-01 09:10:00,
2013-11-01 04:15:00,45.2,43.0,29.52,SW,232,17.3,17.3,92,0.00,CLR,,0.00,WeatherDisplay:10.37,2013-11-01 09:15:00,
2013-11-01 04:20:00,45.2,43.0,29.53,SW,230,15.0,15.0,92,0.00,CLR,,0.00,WeatherDisplay:10.37,2013-11-01 09:20:00,
2013-11-01 04:25:00,45.3,43.4,29.53,SW,224,16.1,16.1,93,0.00,CLR,,0.00,WeatherDisplay:10.37,2013-11-01 09:25:00,
2013-11-01 04:30:00,45.3,43.4,29.53,SW,234,17.3,17.3,93,0.00,CLR,,0.00,WeatherDisplay:10.37,2013-11-01 09:30:00,
2013-11-01 04:35:00,45.3,43.1,29.53,SW,226,12.7,12.7,92,0.00,CLR,,0.00,WeatherDisplay:10.37,2013-11-01 09:35:00,
2013-11-01 04:40:00,45.3,43.4,29.54,SW,222,12.7,12.7,93,0.00,CLR,,0.00,WeatherDisplay:10.37,2013-11-01 09:40:00,
2013-11-01 04:45:00,45.3,43.4,29.54,SW,217,12.7,12.7,93,0.00,CLR,,0.00,WeatherDisplay:10.37,2013-11-01 09:45:00,
2013-11-01 04:50:00,45.3,43.4,29.53,SW,215,8.1,8.1,93,0.00,CLR,,0.00,WeatherDisplay:10.37,2013-11-01 09:50:00,
2013-11-01 04:55:00,45.2,43.3,29.53,WSW,252,12.7,12.7,93,0.00,CLR,,0.00,WeatherDisplay:10.37,2013-11-01 09:55:00,
2013-11-01 05:00:00,45.2,43.3,29.54,SW,232,11.5,11.5,93,0.00,CLR,,0.00,WeatherDisplay:10.37,2013-11-01 10:00:00,
2013-11-01 05:05:00,45.2,43.3,29.55,SW,226,10.4,10.4,93,0.00,CLR,,0.00,WeatherDisplay:10.37,2013-11-01 10:05:00,
2013-11-01 05:10:00,45.2,43.3,29.55,SW,216,14.0,14.0,93,0.00,CLR,,0.00,WeatherDisplay:10.37,2013-11-01 10:10:00,
2013-11-01 05:15:00,45.2,43.3,29.55,SW,224,13.8,13.8,93,0.00,CLR,,0.00,WeatherDisplay:10.37,2013-11-01 10:15:00,
2013-11-01 05:20:00,45.2,43.3,29.55,SW,230,17.3,17.3,93,0.00,CLR,,0.00,WeatherDisplay:10.37,2013-11-01 10:20:00,
2013-11-01 05:25:00,45.2,43.3,29.55,SW,220,12.0,12.0,93,0.00,CLR,,0.00,WeatherDisplay:10.37,2013-11-01 10:25:00,
2013-11-01 05:30:00,45.2,43.3,29.56,SW,221,16.1,16.1,93,0.00,CLR,,0.00,WeatherDisplay:10.37,2013-11-01 10:30:00,
2013-11-01 05:35:00,45.2,43.3,29.56,SSW,208,16.1,16.1,93,0.00,CLR,,0.00,WeatherDisplay:10.37,2013-11-01 10:35:00,
2013-11-01 05:40:00,45.2,43.3,29.57,SSW,207,17.3,17.3,93,0.00,CLR,,0.00,WeatherDisplay:10.37,2013-11-01 10:40:00,
2013-11-01 05:45:00,45.3,43.4,29.57,SSW,211,17.3,17.3,93,0.00,CLR,,0.00,WeatherDisplay:10.37,2013-11-01 10:45:00,
2013-11-01 05:50:00,45.4,43.5,29.57,WSW,240,11.5,11.5,93,0.00,CLR,,0.00,WeatherDisplay:10.37,2013-11-01 10:50:00,
2013-11-01 05:55:00,45.5,43.6,29.57,SW,232,17.0,17.0,93,0.00,CLR,,0.00,WeatherDisplay:10.37,2013-11-01 10:55:00,
2013-11-01 06:00:00,45.6,43.7,29.57,SW,221,13.8,13.8,93,0.00,CLR,,0.00,WeatherDisplay:10.37,2013-11-01 11:00:00,
2013-11-01 06:05:00,45.8,43.9,29.57,SW,229,10.4,10.4,93,0.00,CLR,,0.00,WeatherDisplay:10.37,2013-11-01 11:05:00,
2013-11-01 06:10:00,45.9,44.0,29.57,WSW,250,13.8,13.8,93,0.00,CLR,,0.00,WeatherDisplay:10.37,2013-11-01 11:10:00,
2013-11-01 06:15:00,45.9,44.0,29.57,WSW,248,10.4,10.4,93,0.00,CLR,,0.00,WeatherDisplay:10.37,2013-11-01 11:15:00,
2013-11-01 06:20:00,46.1,44.2,29.58,SW,220,10.4,10.4,93,0.00,CLR,,0.00,WeatherDisplay:10.37,2013-11-01 11:20:00,
2013-11-01 06:25:00,46.2,44.3,29.57,WSW,242,17.3,17.3,93,0.00,CLR,,0.00,WeatherDisplay:10.37,2013-11-01 11:25:00,
2013-11-01 06:30:00,46.3,44.4,29.57,SW,232,14.0,14.0,93,0.00,CLR,,0.00,WeatherDisplay:10.37,2013-11-01 11:30:00,
2013-11-01 06:35:00,46.4,44.5,29.58,WSW,247,16.1,16.1,93,0.00,CLR,,0.00,WeatherDisplay:10.37,2013-11-01 11:35:00,
2013-11-01 06:40:00,46.5,44.3,29.57,SSW,205,13.8,13.8,92,0.00,CLR,,0.00,WeatherDisplay:10.37,2013-11-01 11:40:00,
2013-11-01 06:45:00,46.7,44.8,29.57,SW,229,18.4,18.4,93,0.00,CLR,,0.00,WeatherDisplay:10.37,2013-11-01 11:45:00,
2013-11-01 06:50:00,46.7,44.5,29.58,SSW,213,11.5,11.5,92,0.00,CLR,,0.00,WeatherDisplay:10.37,2013-11-01 11:50:00,
2013-11-01 06:55:00,46.8,44.6,29.58,SW,221,6.9,6.9,92,0.00,CLR,,0.00,WeatherDisplay:10.37,2013-11-01 11:55:00,
2013-11-01 07:00:00,46.9,44.7,29.58,WSW,250,17.3,17.3,92,0.00,CLR,,0.00,WeatherDisplay:10.37,2013-11-01 12:00:00,
2013-11-01 07:05:00,46.9,44.7,29.57,SW,227,12.7,12.7,92,0.00,CLR,,0.00,WeatherDisplay:10.37,2013-11-01 12:05:00,
2013-11-01 07:10:00,46.9,44.7,29.57,SSW,213,10.4,10.4,92,0.00,CLR,,0.00,WeatherDisplay:10.37,2013-11-01 12:10:00,
2013-11-01 07:15:00,46.9,44.7,29.57,SW,226,10.4,10.4,92,0.00,CLR,,0.00,WeatherDisplay:10.37,2013-11-01 12:15:00,
2013-11-01 07:20:00,46.9,44.7,29.57,WSW,240,6.0,6.0,92,0.00,CLR,,0.00,WeatherDisplay:10.37,2013-11-01 12:20:00,
2013-11-01 07:25:00,46.9,44.7,29.57,WSW,242,11.5,11.5,92,0.00,CLR,,0.00,WeatherDisplay:10.37,2013-11-01 12:25:00,
2013-11-01 07:30:00,47.0,44.8,29.57,WSW,240,9.2,9.2,92,0.00,CLR,,0.00,WeatherDisplay:10.37,2013-11-01 12:30:00,
2013-11-01 07:35:00,47.1,44.9,29.57,WSW,238,10.4,10.4,92,0.00,CLR,,0.00,WeatherDisplay:10.37,2013-11-01 12:35:00,
2013-11-01 07:40:00,47.1,44.9,29.57,SW,231,6.9,6.9,92,0.00,CLR,,0.00,WeatherDisplay:10.37,2013-11-01 12:40:00,
2013-11-01 07:45:00,47.2,45.0,29.57,West,280,5.8,5.8,92,0.00,CLR,,0.00,WeatherDisplay:10.37,2013-11-01 12:45:00,
2013-11-01 07:50:00,47.2,44.7,29.57,WSW,243,6.9,6.9,91,0.00,CLR,,0.00,WeatherDisplay:10.37,2013-11-01 12:50:00,
2013-11-01 07:55:00,47.3,44.8,29.58,SW,235,15.0,15.0,91,0.00,CLR,,0.00,WeatherDisplay:10.37,2013-11-01 12:55:00,
2013-11-01 08:00:00,47.4,44.9,29.58,WSW,245,6.0,6.0,91,0.00,CLR,,0.00,WeatherDisplay:10.37,2013-11-01 13:00:00,
2013-11-01 08:05:00,47.4,44.9,29.58,SW,235,12.7,12.7,91,0.00,CLR,,0.00,WeatherDisplay:10.37,2013-11-01 13:05:00,
2013-11-01 08:10:00,47.4,44.6,29.58,South,190,15.0,15.0,90,0.00,CLR,,0.00,WeatherDisplay:10.37,2013-11-01 13:10:00,
2013-11-01 08:15:00,47.4,44.6,29.58,SSW,200,15.0,15.0,90,0.00,CLR,,0.00,WeatherDisplay:10.37,2013-11-01 13:15:00,
2013-11-01 08:20:00,47.4,44.6,29.59,SW,229,10.4,10.4,90,0.00,CLR,,0.00,WeatherDisplay:10.37,2013-11-01 13:20:00,
2013-11-01 08:25:00,47.4,44.6,29.59,SW,222,12.7,12.7,90,0.00,CLR,,0.00,WeatherDisplay:10.37,2013-11-01 13:25:00,
2013-11-01 08:30:00,47.4,44.6,29.60,SW,219,13.8,13.8,90,0.00,CLR,,0.00,WeatherDisplay:10.37,2013-11-01 13:30:00,
2013-11-01 08:35:00,47.4,44.6,29.60,West,265,18.4,18.4,90,0.00,CLR,,0.00,WeatherDisplay:10.37,2013-11-01 13:35:00,
2013-11-01 08:40:00,47.4,44.6,29.60,SW,222,12.0,12.0,90,0.00,CLR,,0.00,WeatherDisplay:10.37,2013-11-01 13:40:00,
2013-11-01 08:46:00,47.5,44.7,29.60,SW,229,7.0,7.0,90,0.00,CLR,,0.00,WeatherDisplay:10.37,2013-11-01 13:46:00,
2013-11-01 08:50:00,47.5,44.7,29.60,SW,226,6.9,6.9,90,0.00,CLR,,0.00,WeatherDisplay:10.37,2013-11-01 13:50:00,
2013-11-01 08:55:00,47.5,44.7,29.61,SW,225,11.5,11.5,90,0.00,CLR,,0.00,WeatherDisplay:10.37,2013-11-01 13:55:00,
2013-11-01 09:00:00,47.4,44.6,29.60,SW,228,13.8,13.8,90,0.00,CLR,,0.00,WeatherDisplay:10.37,2013-11-01 14:00:00,
2013-11-01 09:05:00,47.3,44.8,29.60,SW,228,10.4,10.4,91,0.00,CLR,,0.00,WeatherDisplay:10.37,2013-11-01 14:05:00,
2013-11-01 09:10:00,47.3,44.8,29.60,SSW,206,10.4,10.4,91,0.00,CLR,,0.00,WeatherDisplay:10.37,2013-11-01 14:10:00,
2013-11-01 09:15:00,47.3,44.8,29.60,WSW,258,15.0,15.0,91,0.00,CLR,,0.00,WeatherDisplay:10.37,2013-11-01 14:15:00,
2013-11-01 09:20:00,47.3,44.8,29.60,West,271,11.5,11.5,91,0.00,CLR,,0.00,WeatherDisplay:10.37,2013-11-01 14:20:00,
2013-11-01 09:26:00,47.4,44.9,29.61,WSW,242,11.5,11.5,91,0.00,CLR,,0.00,WeatherDisplay:10.37,2013-11-01 14:26:00,
2013-11-01 09:31:00,47.4,44.9,29.61,SW,229,9.2,9.2,91,0.00,CLR,,0.00,WeatherDisplay:10.37,2013-11-01 14:31:00,
2013-11-01 09:36:00,47.5,44.7,29.61,WSW,251,5.8,5.8,90,0.00,CLR,,0.00,WeatherDisplay:10.37,2013-11-01 14:36:00,
2013-11-01 09:41:00,47.6,44.8,29.61,SW,232,9.0,9.0,90,0.00,CLR,,0.00,WeatherDisplay:10.37,2013-11-01 14:41:00,
2013-11-01 09:46:00,47.6,44.8,29.61,SW,224,9.2,9.2,90,0.00,CLR,,0.00,WeatherDisplay:10.37,2013-11-01 14:46:00,
2013-11-01 09:51:00,47.6,44.8,29.61,SW,232,11.5,11.5,90,0.00,CLR,,0.00,WeatherDisplay:10.37,2013-11-01 14:51:00,
2013-11-01 09:56:00,47.6,44.8,29.61,WSW,253,6.9,6.9,90,0.00,CLR,,0.00,WeatherDisplay:10.37,2013-11-01 14:56:00,
2013-11-01 10:01:00,47.8,45.0,29.61,WSW,237,11.5,11.5,90,0.00,CLR,,0.00,WeatherDisplay:10.37,2013-11-01 15:01:00,
2013-11-01 10:06:00,47.9,45.1,29.61,SSW,206,9.2,9.2,90,0.00,CLR,,0.00,WeatherDisplay:10.37,2013-11-01 15:06:00,
2013-11-01 10:11:00,47.9,44.8,29.61,WSW,240,4.6,4.6,89,0.00,CLR,,0.00,WeatherDisplay:10.37,2013-11-01 15:11:00,
2013-11-01 10:16:00,48.1,45.0,29.61,WSW,255,8.1,8.1,89,0.00,CLR,,0.00,WeatherDisplay:10.37,2013-11-01 15:16:00,
2013-11-01 10:21:00,48.1,45.0,29.61,West,262,9.2,9.2,89,0.00,CLR,,0.00,WeatherDisplay:10.37,2013-11-01 15:21:00,
2013-11-01 10:26:00,48.2,45.1,29.61,WSW,247,10.0,10.0,89,0.00,CLR,,0.00,WeatherDisplay:10.37,2013-11-01 15:26:00,
2013-11-01 10:31:00,48.3,44.9,29.61,West,261,6.0,6.0,88,0.00,CLR,,0.00,WeatherDisplay:10.37,2013-11-01 15:31:00,
2013-11-01 10:36:00,48.4,45.3,29.61,SW,231,4.6,4.6,89,0.00,CLR,,0.00,WeatherDisplay:10.37,2013-11-01 15:36:00,
2013-11-01 10:41:00,48.4,45.0,29.61,WSW,238,3.5,3.9,88,0.00,CLR,,0.00,WeatherDisplay:10.37,2013-11-01 15:41:00,
2013-11-01 10:46:00,48.5,45.1,29.62,SW,219,10.0,10.0,88,0.00,CLR,,0.00,WeatherDisplay:10.37,2013-11-01 15:46:00,
2013-11-01 10:51:00,48.5,44.8,29.62,SW,234,12.7,12.7,87,0.00,CLR,,0.00,WeatherDisplay:10.37,2013-11-01 15:51:00,
2013-11-01 10:56:00,48.5,45.1,29.62,SW,226,11.5,11.5,88,0.00,CLR,,0.00,WeatherDisplay:10.37,2013-11-01 15:56:00,
2013-11-01 11:01:00,48.6,44.9,29.62,SW,221,9.2,9.2,87,0.00,CLR,,0.00,WeatherDisplay:10.37,2013-11-01 16:01:00,
2013-11-01 11:06:00,48.7,45.0,29.62,SW,233,10.4,10.4,87,0.00,CLR,,0.00,WeatherDisplay:10.37,2013-11-01 16:06:00,
2013-11-01 11:11:00,49.0,45.3,29.62,SW,236,12.7,12.7,87,0.00,CLR,,0.00,WeatherDisplay:10.37,2013-11-01 16:11:00,
2013-11-01 11:16:00,49.0,45.0,29.62,WSW,240,10.4,10.4,86,0.00,CLR,,0.00,WeatherDisplay:10.37,2013-11-01 16:16:00,
2013-11-01 11:21:00,49.5,45.5,29.61,SW,229,14.0,14.0,86,0.00,CLR,,0.00,WeatherDisplay:10.37,2013-11-01 16:21:00,
2013-11-01 11:26:00,50.1,45.5,29.62,WSW,239,10.4,10.4,84,0.00,CLR,,0.00,WeatherDisplay:10.37,2013-11-01 16:26:00,
2013-11-01 11:31:00,50.3,45.6,29.62,SW,229,15.0,15.0,84,0.00,CLR,,0.00,WeatherDisplay:10.37,2013-11-01 16:31:00,
2013-11-01 11:36:00,50.4,45.4,29.62,SW,217,11.5,11.5,83,0.00,CLR,,0.00,WeatherDisplay:10.37,2013-11-01 16:36:00,
2013-11-01 11:41:00,50.8,46.1,29.62,SW,227,5.8,5.8,84,0.00,CLR,,0.00,WeatherDisplay:10.37,2013-11-01 16:41:00,
2013-11-01 11:46:00,51.2,45.9,29.62,SSW,211,19.6,19.6,82,0.00,CLR,,0.00,WeatherDisplay:10.37,2013-11-01 16:46:00,
2013-11-01 11:51:00,51.4,45.8,29.62,SW,233,10.4,10.4,81,0.00,CLR,,0.00,WeatherDisplay:10.37,2013-11-01 16:51:00,
2013-11-01 11:56:00,51.4,45.8,29.62,WSW,239,11.5,11.5,81,0.00,CLR,,0.00,WeatherDisplay:10.37,2013-11-01 16:56:00,
2013-11-01 12:01:00,51.5,45.5,29.62,WSW,239,11.5,11.5,80,0.00,CLR,,0.00,WeatherDisplay:10.37,2013-11-01 17:01:00,
2013-11-01 12:06:00,51.7,45.4,29.62,SW,229,16.1,16.1,79,0.00,CLR,,0.00,WeatherDisplay:10.37,2013-11-01 17:06:00,
2013-11-01 12:11:00,51.9,45.6,29.62,SW,218,6.9,6.9,79,0.00,CLR,,0.00,WeatherDisplay:10.37,2013-11-01 17:11:00,
2013-11-01 12:16:00,52.0,45.4,29.62,SW,216,9.2,9.2,78,0.00,CLR,,0.00,WeatherDisplay:10.37,2013-11-01 17:16:00,
2013-11-01 12:21:00,51.9,44.9,29.62,WSW,243,16.1,16.1,77,0.00,CLR,,0.00,WeatherDisplay:10.37,2013-11-01 17:21:00,
2013-11-01 12:26:00,51.9,44.6,29.62,SW,223,10.4,10.4,76,0.00,CLR,,0.00,WeatherDisplay:10.37,2013-11-01 17:26:00,
2013-11-01 12:31:00,52.2,44.5,29.62,SW,235,19.6,19.6,75,0.00,CLR,,0.00,WeatherDisplay:10.37,2013-11-01 17:31:00,
2013-11-01 12:36:00,52.9,45.2,29.62,WSW,240,8.0,8.0,75,0.00,CLR,,0.00,WeatherDisplay:10.37,2013-11-01 17:36:00,
2013-11-01 12:41:00,53.8,45.3,29.61,West,260,7.0,7.0,73,0.00,CLR,,0.00,WeatherDisplay:10.37,2013-11-01 17:41:00,
2013-11-01 12:46:00,53.9,45.1,29.61,WSW,242,11.5,11.5,72,0.00,CLR,,0.00,WeatherDisplay:10.37,2013-11-01 17:46:00,
2013-11-01 12:51:00,53.6,44.4,29.61,SSW,213,11.5,11.5,71,0.00,CLR,,0.00,WeatherDisplay:10.37,2013-11-01 17:51:00,
2013-11-01 12:56:00,53.5,44.3,29.61,NW,323,20.7,20.7,71,0.00,CLR,,0.00,WeatherDisplay:10.37,2013-11-01 17:56:00,
2013-11-01 13:01:00,53.2,44.4,29.61,SW,231,11.5,11.5,72,0.00,CLR,,0.00,WeatherDisplay:10.37,2013-11-01 18:01:00,
2013-11-01 13:06:00,53.3,44.9,29.61,SW,236,5.0,5.0,73,0.00,CLR,,0.00,WeatherDisplay:10.37,2013-11-01 18:06:00,
2013-11-01 13:11:00,53.6,45.2,29.61,SW,236,11.5,11.5,73,0.00,CLR,,0.00,WeatherDisplay:10.37,2013-11-01 18:11:00,
2013-11-01 13:16:00,53.5,45.1,29.61,WSW,254,9.2,9.2,73,0.00,CLR,,0.00,WeatherDisplay:10.37,2013-11-01 18:16:00,
2013-11-01 13:21:00,53.4,44.6,29.61,West,264,11.5,11.5,72,0.00,CLR,,0.00,WeatherDisplay:10.37,2013-11-01 18:21:00,
2013-11-01 13:26:00,53.3,44.1,29.61,West,277,11.5,11.5,71,0.00,CLR,,0.00,WeatherDisplay:10.37,2013-11-01 18:26:00,
2013-11-01 13:31:00,53.0,44.2,29.61,WNW,288,9.2,9.2,72,0.00,CLR,,0.00,WeatherDisplay:10.37,2013-11-01 18:31:00,
2013-11-01 13:36:00,53.0,44.2,29.61,West,278,15.0,15.0,72,0.00,CLR,,0.00,WeatherDisplay:10.37,2013-11-01 18:36:00,
2013-11-01 13:41:00,52.6,44.2,29.61,SSW,209,12.7,12.7,73,0.00,CLR,,0.00,WeatherDisplay:10.37,2013-11-01 18:41:00,
2013-11-01 13:46:00,52.5,44.1,29.60,WSW,243,11.5,11.5,73,0.00,CLR,,0.00,WeatherDisplay:10.37,2013-11-01 18:46:00,
2013-11-01 13:51:00,52.7,44.3,29.61,WSW,238,5.8,5.8,73,0.00,CLR,,0.00,WeatherDisplay:10.37,2013-11-01 18:51:00,
2013-11-01 13:56:00,52.9,44.5,29.61,West,261,5.8,5.8,73,0.00,CLR,,0.00,WeatherDisplay:10.37,2013-11-01 18:56:00,
2013-11-01 14:01:00,53.1,44.3,29.61,West,279,11.0,11.0,72,0.00,CLR,,0.00,WeatherDisplay:10.37,2013-11-01 19:01:00,
2013-11-01 14:06:00,53.0,44.2,29.61,WSW,238,18.4,18.4,72,0.00,CLR,,0.00,WeatherDisplay:10.37,2013-11-01 19:06:00,
2013-11-01 14:11:00,53.0,44.2,29.61,SSW,209,17.3,17.3,72,0.00,CLR,,0.00,WeatherDisplay:10.37,2013-11-01 19:11:00,
2013-11-01 14:16:00,53.0,44.2,29.61,WNW,287,11.0,11.0,72,0.00,CLR,,0.00,WeatherDisplay:10.37,2013-11-01 19:16:00,
2013-11-01 14:21:00,53.1,44.3,29.61,WSW,253,7.0,7.0,72,0.00,CLR,,0.00,WeatherDisplay:10.37,2013-11-01 19:21:00,
2013-11-01 14:26:00,53.2,44.4,29.61,WSW,240,11.5,11.5,72,0.00,CLR,,0.00,WeatherDisplay:10.37,2013-11-01 19:26:00,
2013-11-01 14:31:00,53.3,44.5,29.61,SW,236,8.1,8.1,72,0.00,CLR,,0.00,WeatherDisplay:10.37,2013-11-01 19:31:00,
2013-11-01 14:36:00,53.5,44.3,29.61,WNW,284,11.5,11.5,71,0.00,CLR,,0.00,WeatherDisplay:10.37,2013-11-01 19:36:00,
2013-11-01 14:41:00,53.6,44.4,29.62,WSW,246,5.8,5.8,71,0.00,CLR,,0.00,WeatherDisplay:10.37,2013-11-01 19:41:00,
2013-11-01 14:46:00,53.5,43.6,29.62,SSW,196,15.0,15.0,69,0.00,CLR,,0.00,WeatherDisplay:10.37,2013-11-01 19:46:00,
2013-11-01 14:51:00,53.4,43.9,29.62,WNW,299,10.4,10.4,70,0.00,CLR,,0.00,WeatherDisplay:10.37,2013-11-01 19:51:00,
2013-11-01 14:56:00,52.9,43.7,29.62,WNW,300,19.6,19.6,71,0.00,CLR,,0.00,WeatherDisplay:10.37,2013-11-01 19:56:00,
2013-11-01 15:01:00,52.7,43.9,29.62,WNW,296,13.8,13.8,72,0.00,CLR,,0.00,WeatherDisplay:10.37,2013-11-01 20:01:00,
2013-11-01 15:06:00,52.6,44.2,29.62,WNW,286,10.4,10.4,73,0.00,CLR,,0.00,WeatherDisplay:10.37,2013-11-01 20:06:00,
2013-11-01 15:11:00,52.5,43.4,29.62,West,272,15.0,15.0,71,0.00,CLR,,0.00,WeatherDisplay:10.37,2013-11-01 20:11:00,
2013-11-01 15:16:00,52.4,43.3,29.63,West,277,20.7,20.7,71,0.00,CLR,,0.00,WeatherDisplay:10.37,2013-11-01 20:16:00,
2013-11-01 15:21:00,52.3,43.2,29.63,WNW,284,17.3,17.3,71,0.00,CLR,,0.00,WeatherDisplay:10.37,2013-11-01 20:21:00,
2013-11-01 15:26:00,52.3,43.2,29.63,WNW,295,14.0,14.0,71,0.00,CLR,,0.00,WeatherDisplay:10.37,2013-11-01 20:26:00,
2013-11-01 15:31:00,52.3,42.8,29.63,WNW,290,11.5,11.5,70,0.00,CLR,,0.00,WeatherDisplay:10.37,2013-11-01 20:31:00,
2013-11-01 15:36:00,52.2,42.7,29.63,WNW,298,18.0,18.0,70,0.00,CLR,,0.00,WeatherDisplay:10.37,2013-11-01 20:36:00,
2013-11-01 15:41:00,52.2,42.7,29.64,WSW,244,11.5,11.5,70,0.00,CLR,,0.00,WeatherDisplay:10.37,2013-11-01 20:41:00,
2013-11-01 15:46:00,52.2,42.7,29.64,West,280,11.5,11.5,70,0.00,CLR,,0.00,WeatherDisplay:10.37,2013-11-01 20:46:00,
2013-11-01 15:51:00,52.1,42.2,29.64,WNW,286,19.6,19.6,69,0.00,CLR,,0.00,WeatherDisplay:10.37,2013-11-01 20:51:00,
2013-11-01 15:56:00,51.8,42.3,29.64,West,277,20.7,20.7,70,0.00,CLR,,0.00,WeatherDisplay:10.37,2013-11-01 20:56:00,
2013-11-01 16:01:00,51.3,41.8,29.65,West,279,20.7,20.7,70,0.00,CLR,,0.00,WeatherDisplay:10.37,2013-11-01 21:01:00,
2013-11-01 16:06:00,51.1,42.4,29.65,NW,309,15.0,15.0,72,0.00,CLR,,0.00,WeatherDisplay:10.37,2013-11-01 21:06:00,
2013-11-01 16:11:00,51.0,42.3,29.65,West,267,10.4,10.4,72,0.00,CLR,,0.00,WeatherDisplay:10.37,2013-11-01 21:11:00,
2013-11-01 16:16:00,51.0,42.3,29.65,WNW,287,11.5,11.5,72,0.00,CLR,,0.00,WeatherDisplay:10.37,2013-11-01 21:16:00,
2013-11-01 16:21:00,51.0,41.9,29.65,WNW,287,18.4,18.4,71,0.00,CLR,,0.00,WeatherDisplay:10.37,2013-11-01 21:21:00,
2013-11-01 16:26:00,51.0,41.9,29.65,West,265,16.1,16.1,71,0.00,CLR,,0.00,WeatherDisplay:10.37,2013-11-01 21:26:00,
2013-11-01 16:31:00,51.0,41.9,29.65,WNW,284,10.0,10.0,71,0.00,CLR,,0.00,WeatherDisplay:10.37,2013-11-01 21:31:00,
2013-11-01 16:36:00,50.9,41.8,29.65,SW,219,13.8,13.8,71,0.00,CLR,,0.00,WeatherDisplay:10.37,2013-11-01 21:36:00,
2013-11-01 16:41:00,50.9,42.2,29.66,WNW,292,13.0,13.0,72,0.00,CLR,,0.00,WeatherDisplay:10.37,2013-11-01 21:41:00,
2013-11-01 16:46:00,50.8,42.1,29.66,WNW,286,12.7,12.7,72,0.00,CLR,,0.00,WeatherDisplay:10.37,2013-11-01 21:46:00,
2013-11-01 16:51:00,50.8,42.5,29.66,West,279,9.2,9.2,73,0.00,CLR,,0.00,WeatherDisplay:10.37,2013-11-01 21:51:00,
2013-11-01 16:56:00,50.8,42.5,29.66,WNW,288,17.3,17.3,73,0.00,CLR,,0.00,WeatherDisplay:10.37,2013-11-01 21:56:00,
2013-11-01 17:01:00,50.7,42.4,29.66,West,275,10.4,10.4,73,0.00,CLR,,0.00,WeatherDisplay:10.37,2013-11-01 22:01:00,
2013-11-01 17:06:00,50.7,42.4,29.66,West,268,4.6,4.6,73,0.00,CLR,,0.00,WeatherDisplay:10.37,2013-11-01 22:06:00,
2013-11-01 17:11:00,50.7,42.4,29.66,West,273,11.5,11.5,73,0.00,CLR,,0.00,WeatherDisplay:10.37,2013-11-01 22:11:00,
2013-11-01 17:16:00,50.6,42.3,29.66,West,269,10.4,10.4,73,0.00,CLR,,0.00,WeatherDisplay:10.37,2013-11-01 22:16:00,
2013-11-01 17:21:00,50.6,42.3,29.66,West,279,10.4,10.4,73,0.00,CLR,,0.00,WeatherDisplay:10.37,2013-11-01 22:21:00,
2013-11-01 17:26:00,50.6,42.6,29.66,West,269,3.5,3.5,74,0.00,CLR,,0.00,WeatherDisplay:10.37,2013-11-01 22:26:00,
2013-11-01 17:31:00,50.6,42.6,29.67,WNW,284,5.0,5.0,74,0.00,CLR,,0.00,WeatherDisplay:10.37,2013-11-01 22:31:00,
2013-11-01 17:36:00,50.5,42.5,29.67,WSW,240,8.0,8.0,74,0.00,CLR,,0.00,WeatherDisplay:10.37,2013-11-01 22:36:00,
2013-11-01 17:41:00,50.5,42.9,29.67,SW,227,6.9,6.9,75,0.00,CLR,,0.00,WeatherDisplay:10.37,2013-11-01 22:41:00,
2013-11-01 17:46:00,50.4,42.4,29.67,WSW,237,11.5,11.5,74,0.00,CLR,,0.00,WeatherDisplay:10.37,2013-11-01 22:46:00,
2013-11-01 17:51:00,50.3,42.7,29.67,SW,227,10.4,10.4,75,0.00,CLR,,0.00,WeatherDisplay:10.37,2013-11-01 22:51:00,
2013-11-01 17:56:00,50.3,42.7,29.67,SW,226,10.4,10.4,75,0.00,CLR,,0.00,WeatherDisplay:10.37,2013-11-01 22:56:00,
2013-11-01 18:01:00,50.2,42.6,29.68,SW,223,6.0,6.0,75,0.00,CLR,,0.00,WeatherDisplay:10.37,2013-11-01 23:01:00,
2013-11-01 18:06:00,50.2,42.2,29.68,SW,235,3.5,3.5,74,0.00,CLR,,0.00,WeatherDisplay:10.37,2013-11-01 23:06:00,
2013-11-01 18:11:00,50.2,42.2,29.68,WSW,241,5.8,5.8,74,0.00,CLR,,0.00,WeatherDisplay:10.37,2013-11-01 23:11:00,
2013-11-01 18:16:00,50.2,42.6,29.68,SW,222,5.8,5.8,75,0.00,CLR,,0.00,WeatherDisplay:10.37,2013-11-01 23:16:00,
2013-11-01 18:21:00,50.1,42.5,29.68,SW,235,8.1,8.1,75,0.00,CLR,,0.00,WeatherDisplay:10.37,2013-11-01 23:21:00,
2013-11-01 18:26:00,50.1,42.5,29.68,SW,231,4.6,4.6,75,0.00,CLR,,0.00,WeatherDisplay:10.37,2013-11-01 23:26:00,
2013-11-01 18:31:00,50.0,42.4,29.68,SW,232,5.8,5.8,75,0.00,CLR,,0.00,WeatherDisplay:10.37,2013-11-01 23:31:00,
2013-11-01 18:36:00,50.0,42.7,29.68,SW,234,7.0,7.0,76,0.00,CLR,,0.00,WeatherDisplay:10.37,2013-11-01 23:36:00,
2013-11-01 18:41:00,49.9,42.3,29.69,SW,232,5.8,5.8,75,0.00,CLR,,0.00,WeatherDisplay:10.37,2013-11-01 23:41:00,
2013-11-01 18:46:00,49.9,42.6,29.69,WSW,237,8.0,8.0,76,0.00,CLR,,0.00,WeatherDisplay:10.37,2013-11-01 23:46:00,
2013-11-01 18:51:00,49.8,42.5,29.69,SW,236,6.9,6.9,76,0.00,CLR,,0.00,WeatherDisplay:10.37,2013-11-01 23:51:00,
2013-11-01 18:56:00,49.8,42.9,29.69,SW,235,5.8,5.8,77,0.00,CLR,,0.00,WeatherDisplay:10.37,2013-11-01 23:56:00,
2013-11-01 19:01:00,49.7,42.8,29.69,SW,235,6.0,6.0,77,0.00,CLR,,0.00,WeatherDisplay:10.37,2013-11-02 00:01:00,
2013-11-01 19:06:00,49.7,42.8,29.70,WSW,237,10.4,10.4,77,0.00,CLR,,0.00,WeatherDisplay:10.37,2013-11-02 00:06:00,
2013-11-01 19:11:00,49.7,42.8,29.70,SW,236,9.2,9.2,77,0.00,CLR,,0.00,WeatherDisplay:10.37,2013-11-02 00:11:00,
2013-11-01 19:16:00,49.7,42.8,29.70,SW,236,3.5,3.5,77,0.00,CLR,,0.00,WeatherDisplay:10.37,2013-11-02 00:16:00,
2013-11-01 19:21:00,49.7,42.8,29.70,WSW,238,6.9,6.9,77,0.00,CLR,,0.00,WeatherDisplay:10.37,2013-11-02 00:21:00,
2013-11-01 19:26:00,49.7,42.8,29.70,SW,234,10.0,10.0,77,0.00,CLR,,0.00,WeatherDisplay:10.37,2013-11-02 00:26:00,
2013-11-01 19:31:00,49.7,42.8,29.70,SW,234,6.9,6.9,77,0.00,CLR,,0.00,WeatherDisplay:10.37,2013-11-02 00:31:00,
2013-11-01 19:36:00,49.8,42.9,29.70,SW,234,5.0,5.0,77,0.00,CLR,,0.00,WeatherDisplay:10.37,2013-11-02 00:36:00,
2013-11-01 19:41:00,49.8,42.9,29.70,WSW,247,10.4,10.4,77,0.00,CLR,,0.00,WeatherDisplay:10.37,2013-11-02 00:41:00,
2013-11-01 19:46:00,49.8,43.2,29.71,WSW,258,11.0,11.0,78,0.00,CLR,,0.00,WeatherDisplay:10.37,2013-11-02 00:46:00,
2013-11-01 19:51:00,49.9,43.3,29.71,WNW,282,11.5,11.5,78,0.00,CLR,,0.00,WeatherDisplay:10.37,2013-11-02 00:51:00,
2013-11-01 19:56:00,49.8,43.5,29.71,WNW,287,11.5,11.5,79,0.00,CLR,,0.00,WeatherDisplay:10.37,2013-11-02 00:56:00,
2013-11-01 20:01:00,49.7,43.5,29.71,WNW,292,10.0,10.0,79,0.00,CLR,,0.00,WeatherDisplay:10.37,2013-11-02 01:01:00,
2013-11-01 20:06:00,49.5,43.6,29.71,WNW,288,8.1,8.1,80,0.00,CLR,,0.00,WeatherDisplay:10.37,2013-11-02 01:06:00,
2013-11-01 20:11:00,49.3,43.7,29.71,West,281,12.7,12.7,81,0.00,CLR,,0.00,WeatherDisplay:10.37,2013-11-02 01:11:00,
2013-11-01 20:16:00,49.2,43.6,29.71,WNW,290,10.4,10.4,81,0.00,CLR,,0.00,WeatherDisplay:10.37,2013-11-02 01:16:00,
2013-11-01 20:21:00,49.2,43.6,29.71,West,281,9.2,9.2,81,0.00,CLR,,0.00,WeatherDisplay:10.37,2013-11-02 01:21:00,
2013-11-01 20:26:00,49.2,43.6,29.71,WNW,286,8.0,8.0,81,0.00,CLR,,0.00,WeatherDisplay:10.37,2013-11-02 01:26:00,
2013-11-01 20:31:00,49.2,43.6,29.71,WNW,291,11.5,11.5,81,0.00,CLR,,0.00,WeatherDisplay:10.37,2013-11-02 01:31:00,
2013-11-01 20:36:00,49.2,43.9,29.71,WNW,284,11.5,11.5,82,0.00,CLR,,0.00,WeatherDisplay:10.37,2013-11-02 01:36:00,
2013-11-01 20:41:00,49.2,43.9,29.71,WNW,283,11.5,11.5,82,0.00,CLR,,0.00,WeatherDisplay:10.37,2013-11-02 01:41:00,
2013-11-01 20:46:00,49.1,43.8,29.72,WNW,285,10.4,10.4,82,0.00,CLR,,0.00,WeatherDisplay:10.37,2013-11-02 01:46:00,
2013-11-01 20:51:00,49.1,43.8,29.71,WNW,292,12.7,12.7,82,0.00,CLR,,0.00,WeatherDisplay:10.37,2013-11-02 01:51:00,
2013-11-01 20:57:00,49.1,43.8,29.71,WNW,284,13.8,13.8,82,0.00,CLR,,0.00,WeatherDisplay:10.37,2013-11-02 01:57:00,
2013-11-01 21:01:00,49.1,43.8,29.72,WNW,286,10.4,10.4,82,0.00,CLR,,0.00,WeatherDisplay:10.37,2013-11-02 02:01:00,
2013-11-01 21:06:00,49.0,44.1,29.72,WNW,287,11.5,11.5,83,0.00,CLR,,0.00,WeatherDisplay:10.37,2013-11-02 02:06:00,
2013-11-01 21:11:00,48.9,44.0,29.72,WNW,287,10.4,10.4,83,0.00,CLR,,0.00,WeatherDisplay:10.37,2013-11-02 02:11:00,
2013-11-01 21:17:00,48.8,43.9,29.72,WNW,286,11.5,11.5,83,0.00,CLR,,0.00,WeatherDisplay:10.37,2013-11-02 02:17:00,
2013-11-01 21:22:00,48.8,44.2,29.72,WNW,287,9.2,9.2,84,0.00,CLR,,0.00,WeatherDisplay:10.37,2013-11-02 02:22:00,
2013-11-01 21:27:00,48.7,44.1,29.72,WNW,287,10.0,10.0,84,0.00,CLR,,0.00,WeatherDisplay:10.37,2013-11-02 02:27:00,
2013-11-01 21:32:00,48.6,44.0,29.73,WNW,290,11.5,11.5,84,0.00,CLR,,0.00,WeatherDisplay:10.37,2013-11-02 02:32:00,
2013-11-01 21:37:00,48.6,44.0,29.73,West,279,11.5,11.5,84,0.00,CLR,,0.00,WeatherDisplay:10.37,2013-11-02 02:37:00,
2013-11-01 21:42:00,48.5,43.9,29.73,West,281,9.2,9.2,84,0.00,CLR,,0.00,WeatherDisplay:10.37,2013-11-02 02:42:00,
2013-11-01 21:47:00,48.4,43.8,29.73,West,279,6.9,6.9,84,0.00,CLR,,0.00,WeatherDisplay:10.37,2013-11-02 02:47:00,
2013-11-01 21:52:00,48.3,43.7,29.74,WNW,282,11.5,11.5,84,0.00,CLR,,0.00,WeatherDisplay:10.37,2013-11-02 02:52:00,
2013-11-01 21:57:00,48.3,43.7,29.74,WNW,285,11.5,11.5,84,0.00,CLR,,0.00,WeatherDisplay:10.37,2013-11-02 02:57:00,
2013-11-01 22:02:00,48.2,43.6,29.74,WNW,293,7.0,7.0,84,0.00,CLR,,0.00,WeatherDisplay:10.37,2013-11-02 03:02:00,
2013-11-01 22:07:00,48.2,43.6,29.74,WNW,291,13.8,13.8,84,0.00,CLR,,0.00,WeatherDisplay:10.37,2013-11-02 03:07:00,
2013-11-01 22:12:00,48.2,43.6,29.74,West,279,13.0,13.0,84,0.00,CLR,,0.00,WeatherDisplay:10.37,2013-11-02 03:12:00,
2013-11-01 22:17:00,48.0,43.7,29.74,West,278,11.5,11.5,85,0.00,CLR,,0.00,WeatherDisplay:10.37,2013-11-02 03:17:00,
2013-11-01 22:22:00,47.9,43.6,29.74,WNW,298,10.0,10.0,85,0.00,CLR,,0.00,WeatherDisplay:10.37,2013-11-02 03:22:00,
2013-11-01 22:27:00,47.8,43.5,29.74,West,280,12.7,12.7,85,0.00,CLR,,0.00,WeatherDisplay:10.37,2013-11-02 03:27:00,
2013-11-01 22:32:00,47.8,43.5,29.74,West,276,8.1,8.1,85,0.00,CLR,,0.00,WeatherDisplay:10.37,2013-11-02 03:32:00,
2013-11-01 22:37:00,47.7,43.4,29.74,WNW,283,10.4,10.4,85,0.00,CLR,,0.00,WeatherDisplay:10.37,2013-11-02 03:37:00,
2013-11-01 22:42:00,47.7,43.4,29.74,West,281,6.9,6.9,85,0.00,CLR,,0.00,WeatherDisplay:10.37,2013-11-02 03:42:00,
2013-11-01 22:47:00,47.7,43.4,29.74,West,281,5.8,5.8,85,0.00,CLR,,0.00,WeatherDisplay:10.37,2013-11-02 03:47:00,
2013-11-01 22:52:00,47.7,43.4,29.74,WNW,285,9.2,9.2,85,0.00,CLR,,0.00,WeatherDisplay:10.37,2013-11-02 03:52:00,
2013-11-01 22:57:00,47.7,43.1,29.74,WNW,286,11.5,11.5,84,0.00,CLR,,0.00,WeatherDisplay:10.37,2013-11-02 03:57:00,
2013-11-01 23:01:00,47.7,43.1,29.74,WNW,286,7.0,7.0,84,0.00,CLR,,0.00,WeatherDisplay:10.37,2013-11-02 04:01:00,
2013-11-01 23:02:00,47.7,43.1,29.74,WNW,286,6.9,6.9,84,0.00,CLR,,0.00,WeatherDisplay:10.37,2013-11-02 04:02:00,
2013-11-01 23:07:00,47.7,43.1,29.74,WNW,286,10.4,10.4,84,0.00,CLR,,0.00,WeatherDisplay:10.37,2013-11-02 04:07:00,
2013-11-01 23:12:00,47.6,43.0,29.74,WNW,287,9.2,9.2,84,0.00,CLR,,0.00,WeatherDisplay:10.37,2013-11-02 04:12:00,
2013-11-01 23:17:00,47.5,42.9,29.75,WNW,288,4.6,4.6,84,0.00,CLR,,0.00,WeatherDisplay:10.37,2013-11-02 04:17:00,
2013-11-01 23:22:00,47.4,42.8,29.74,WNW,288,3.5,3.5,84,0.00,CLR,,0.00,WeatherDisplay:10.37,2013-11-02 04:22:00,
2013-11-01 23:27:00,47.3,43.0,29.74,WNW,288,3.5,3.5,85,0.00,CLR,,0.00,WeatherDisplay:10.37,2013-11-02 04:27:00,
2013-11-01 23:32:00,47.1,42.8,29.74,West,281,2.3,2.3,85,0.00,CLR,,0.00,WeatherDisplay:10.37,2013-11-02 04:32:00,
2013-11-01 23:37:00,46.8,42.8,29.74,West,280,4.6,4.6,86,0.00,CLR,,0.00,WeatherDisplay:10.37,2013-11-02 04:37:00,
2013-11-01 23:42:00,46.6,42.6,29.74,West,280,3.5,3.5,86,0.00,CLR,,0.00,WeatherDisplay:10.37,2013-11-02 04:42:00,
2013-11-01 23:47:00,46.4,42.7,29.74,West,281,3.5,3.5,87,0.00,CLR,,0.00,WeatherDisplay:10.37,2013-11-02 04:47:00,
2013-11-01 23:52:00,46.1,42.4,29.74,WNW,284,4.6,4.6,87,0.00,CLR,,0.00,WeatherDisplay:10.37,2013-11-02 04:52:00,
2013-11-01 23:57:00,45.9,42.5,29.74,WNW,284,3.5,3.5,88,0.00,CLR,,0.00,WeatherDisplay:10.37,2013-11-02 04:57:00,